createdAt,value
2022-10-31T00:00:46.925Z,16.15
2022-10-31T00:03:16.707Z,16.17
2022-10-31T00:05:46.062Z,16.14
2022-10-31T00:08:13.952Z,16.12
2022-10-31T00:10:42.071Z,16.12
2022-10-31T00:13:11.194Z,16.11
2022-10-31T00:15:40.621Z,16.09
2022-10-31T00:18:09.780Z,16.08
2022-10-31T00:20:39.208Z,16.08
2022-10-31T00:23:07.974Z,16.06
2022-10-31T00:25:37.654Z,16.06
2022-10-31T00:28:06.983Z,16.04
2022-10-31T00:30:35.218Z,16.01
2022-10-31T00:33:05.364Z,16.02
2022-10-31T00:35:33.278Z,15.98
2022-10-31T00:38:02.705Z,15.99
2022-10-31T00:40:30.472Z,15.96
2022-10-31T00:42:58.490Z,15.94
2022-10-31T00:45:26.530Z,15.93
2022-10-31T00:47:54.660Z,15.92
2022-10-31T00:50:22.560Z,15.90
2022-10-31T00:52:50.299Z,15.89
2022-10-31T00:55:19.781Z,15.90
2022-10-31T00:57:48.924Z,15.88
2022-10-31T01:00:18.215Z,15.88
2022-10-31T01:02:46.990Z,15.86
2022-10-31T01:05:15.007Z,15.87
2022-10-31T01:07:44.020Z,15.89
2022-10-31T01:10:12.633Z,15.89
2022-10-31T01:12:42.817Z,15.91
2022-10-31T01:15:12.267Z,15.89
2022-10-31T01:17:40.153Z,15.88
2022-10-31T01:20:09.800Z,15.88
2022-10-31T01:22:37.834Z,15.86
2022-10-31T01:25:07.050Z,15.88
2022-10-31T01:27:34.930Z,15.85
2022-10-31T01:30:04.599Z,15.85
2022-10-31T01:32:32.427Z,15.82
2022-10-31T01:35:00.418Z,15.81
2022-10-31T01:37:28.249Z,15.78
2022-10-31T01:39:56.329Z,15.77
2022-10-31T01:42:24.898Z,15.76
2022-10-31T01:44:59.840Z,15.77
2022-10-31T01:47:35.944Z,15.75
2022-10-31T01:50:08.308Z,15.73
2022-10-31T01:52:40.756Z,15.70
2022-10-31T01:55:11.950Z,15.67
2022-10-31T01:57:44.325Z,15.68
2022-10-31T02:00:14.316Z,15.66
2022-10-31T02:02:44.342Z,15.66
2022-10-31T02:05:16.704Z,15.65
2022-10-31T02:07:51.065Z,15.62
2022-10-31T02:10:19.138Z,15.61
2022-10-31T02:12:47.991Z,15.60
2022-10-31T02:15:16.592Z,15.59
2022-10-31T02:17:46.607Z,15.61
2022-10-31T02:20:18.717Z,15.59
2022-10-31T02:23:20.283Z,15.56
2022-10-31T02:26:15.022Z,15.54
2022-10-31T02:29:07.796Z,15.55
2022-10-31T02:31:44.799Z,15.51
2022-10-31T02:34:19.807Z,15.51
2022-10-31T02:36:59.090Z,15.51
2022-10-31T02:39:31.297Z,15.49
2022-10-31T02:42:09.791Z,15.49
2022-10-31T02:44:46.744Z,15.46
2022-10-31T02:47:19.738Z,15.47
2022-10-31T02:49:50.489Z,15.18
2022-10-31T02:52:23.120Z,15.42
2022-10-31T02:54:51.318Z,15.41
2022-10-31T02:57:25.959Z,15.45
2022-10-31T03:00:02.791Z,15.43
2022-10-31T03:03:33.807Z,15.34
2022-10-31T03:06:45.169Z,15.37
2022-10-31T03:09:41.726Z,15.36
2022-10-31T03:12:48.650Z,15.34
2022-10-31T03:15:42.495Z,15.31
2022-10-31T03:18:34.614Z,15.33
2022-10-31T03:21:15.416Z,15.32
2022-10-31T03:23:59.373Z,15.29
2022-10-31T03:26:31.960Z,15.26
2022-10-31T03:29:38.532Z,15.27
2022-10-31T03:32:28.441Z,15.25
2022-10-31T03:35:56.200Z,15.25
2022-10-31T03:38:54.867Z,15.24
2022-10-31T03:42:00.790Z,15.25
2022-10-31T03:44:55.058Z,15.26
2022-10-31T03:47:23.682Z,15.23
2022-10-31T03:49:52.053Z,15.22
2022-10-31T03:52:29.469Z,15.23
2022-10-31T03:55:01.126Z,15.17
2022-10-31T03:57:39.113Z,15.18
2022-10-31T04:17:53.833Z,14.94
2022-10-31T04:20:32.274Z,14.97
2022-10-31T04:23:00.252Z,14.96
2022-10-31T04:25:28.308Z,14.96
2022-10-31T04:27:56.786Z,14.96
2022-10-31T04:30:25.396Z,14.95
2022-10-31T04:32:53.620Z,14.96
2022-10-31T04:35:22.985Z,14.95
2022-10-31T04:37:50.970Z,14.96
2022-10-31T04:40:20.331Z,14.94
2022-10-31T04:43:06.827Z,14.95
2022-10-31T04:45:37.627Z,14.98
2022-10-31T04:48:10.082Z,14.96
2022-10-31T04:50:50.370Z,14.99
2022-10-31T04:53:23.187Z,14.96
2022-10-31T04:56:10.275Z,14.96
2022-10-31T04:58:42.929Z,14.69
2022-10-31T05:01:41.346Z,14.91
2022-10-31T05:04:20.804Z,14.98
2022-10-31T05:10:04.372Z,14.94
2022-10-31T05:13:14.076Z,14.95
2022-10-31T05:16:40.911Z,14.87
2022-10-31T05:19:31.552Z,14.86
2022-10-31T05:22:23.687Z,14.87
2022-10-31T05:24:51.855Z,14.85
2022-10-31T05:27:20.014Z,14.85
2022-10-31T05:29:48.228Z,14.87
2022-10-31T05:32:17.000Z,14.85
2022-10-31T05:35:16.584Z,14.85
2022-10-31T05:38:08.536Z,14.86
2022-10-31T05:40:36.766Z,14.85
2022-10-31T05:43:04.713Z,14.84
2022-10-31T05:45:32.683Z,14.84
2022-10-31T05:48:05.239Z,14.84
2022-10-31T05:51:02.454Z,14.80
2022-10-31T05:53:31.810Z,14.81
2022-10-31T05:56:02.958Z,14.81
2022-10-31T05:58:31.249Z,14.79
2022-10-31T06:01:06.460Z,14.78
2022-10-31T06:03:35.088Z,14.79
2022-10-31T06:06:05.475Z,14.78
2022-10-31T06:08:44.406Z,14.75
2022-10-31T07:19:27.761Z,14.34
2022-10-31T07:21:56.234Z,14.35
2022-10-31T07:24:28.180Z,14.39
2022-10-31T07:29:28.286Z,14.45
2022-10-31T07:31:56.342Z,14.47
2022-10-31T07:34:30.623Z,14.49
2022-10-31T07:37:20.839Z,14.51
2022-10-31T07:39:50.073Z,14.54
2022-10-31T07:42:18.160Z,14.54
2022-10-31T07:44:47.690Z,14.57
2022-10-31T07:47:41.398Z,14.60
2022-10-31T07:50:13.709Z,14.61
2022-10-31T07:53:04.287Z,14.63
2022-10-31T07:55:48.327Z,14.61
2022-10-31T07:58:18.046Z,14.67
2022-10-31T08:01:06.271Z,14.71
2022-10-31T08:03:44.223Z,14.71
2022-10-31T08:06:32.251Z,14.74
2022-10-31T08:09:23.010Z,14.73
2022-10-31T08:11:53.948Z,14.77
2022-10-31T08:14:22.106Z,14.81
2022-10-31T08:16:52.541Z,14.81
2022-10-31T08:19:20.486Z,14.83
2022-10-31T08:21:52.724Z,14.86
2022-10-31T08:24:20.668Z,14.86
2022-10-31T08:26:49.250Z,14.89
2022-10-31T08:29:18.123Z,14.91
2022-10-31T08:31:47.973Z,14.94
2022-10-31T08:34:54.151Z,14.94
2022-10-31T08:37:49.361Z,15.00
2022-10-31T08:40:18.273Z,15.02
2022-10-31T08:42:46.059Z,15.05
2022-10-31T08:45:14.056Z,15.10
2022-10-31T08:47:42.210Z,15.13
2022-10-31T08:50:10.726Z,15.19
2022-10-31T08:53:03.628Z,15.23
2022-10-31T08:55:29.615Z,15.28
2022-10-31T08:58:06.464Z,15.33
2022-10-31T09:00:44.090Z,15.36
2022-10-31T09:03:17.687Z,15.39
2022-10-31T09:05:46.835Z,15.44
2022-10-31T09:08:16.875Z,15.48
2022-10-31T09:10:48.908Z,15.50
2022-10-31T09:13:27.346Z,15.55
2022-10-31T09:16:18.538Z,15.58
2022-10-31T09:18:46.547Z,15.62
2022-10-31T09:21:18.026Z,15.65
2022-10-31T09:23:47.701Z,15.68
2022-10-31T09:26:17.907Z,15.73
2022-10-31T09:28:58.699Z,15.74
2022-10-31T09:31:27.033Z,15.77
2022-10-31T09:34:02.734Z,15.79
2022-10-31T09:36:50.858Z,15.79
2022-10-31T09:39:21.110Z,15.82
2022-10-31T09:42:25.158Z,15.88
2022-10-31T09:45:06.357Z,15.87
2022-10-31T09:47:54.817Z,15.93
2022-10-31T09:50:35.081Z,15.92
2022-10-31T09:53:27.009Z,15.97
2022-10-31T09:55:56.850Z,15.98
2022-10-31T09:58:29.156Z,16.04
2022-10-31T10:01:02.199Z,16.04
2022-10-31T10:04:00.678Z,16.09
2022-10-31T10:11:32.579Z,16.18
2022-10-31T10:22:23.180Z,16.35
2022-10-31T10:25:04.314Z,16.42
2022-10-31T10:27:44.064Z,16.48
2022-10-31T10:30:17.598Z,16.53
2022-10-31T10:32:51.936Z,16.59
2022-10-31T10:35:25.424Z,16.62
2022-10-31T10:37:58.559Z,16.64
2022-10-31T10:40:29.151Z,16.69
2022-10-31T10:43:22.048Z,16.74
2022-10-31T10:46:16.903Z,16.74
2022-10-31T10:48:46.944Z,16.75
2022-10-31T10:51:39.053Z,16.80
2022-10-31T10:54:34.919Z,16.83
2022-10-31T10:57:12.761Z,16.84
2022-10-31T10:59:41.489Z,16.83
2022-10-31T11:02:21.859Z,16.90
2022-10-31T11:04:55.528Z,16.92
2022-10-31T11:07:33.742Z,16.95
2022-10-31T11:10:14.078Z,16.95
2022-10-31T11:17:42.501Z,17.02
2022-10-31T11:20:32.151Z,17.10
2022-10-31T11:23:06.860Z,17.15
2022-10-31T11:25:35.455Z,17.18
2022-10-31T11:28:05.474Z,17.23
2022-10-31T11:30:44.498Z,17.30
2022-10-31T11:33:22.916Z,17.31
2022-10-31T11:35:57.096Z,17.36
2022-10-31T11:39:19.387Z,17.44
2022-10-31T11:42:08.589Z,17.42
2022-10-31T11:45:00.082Z,17.49
2022-10-31T11:48:03.487Z,17.54
2022-10-31T11:51:05.976Z,17.60
2022-10-31T11:53:36.814Z,17.63
2022-10-31T11:56:12.470Z,17.70
2022-10-31T11:58:41.404Z,17.73
2022-10-31T12:01:26.900Z,17.77
2022-10-31T12:04:07.662Z,17.82
2022-10-31T12:06:38.623Z,17.85
2022-10-31T12:09:22.153Z,17.90
2022-10-31T12:12:04.979Z,17.92
2022-10-31T12:14:37.385Z,17.66
2022-10-31T12:17:16.898Z,17.94
2022-10-31T12:19:56.151Z,18.01
2022-10-31T12:22:32.392Z,18.07
2022-10-31T12:25:14.491Z,18.11
2022-10-31T12:28:00.330Z,18.14
2022-10-31T12:30:44.664Z,18.20
2022-10-31T12:33:28.357Z,18.26
2022-10-31T12:36:12.670Z,18.30
2022-10-31T12:38:57.169Z,18.34
2022-10-31T12:41:38.651Z,18.36
2022-10-31T12:44:13.931Z,18.40
2022-10-31T12:47:01.774Z,18.45
2022-10-31T12:49:44.693Z,18.48
2022-10-31T12:52:32.267Z,18.50
2022-10-31T12:55:12.714Z,18.53
2022-10-31T12:57:47.023Z,18.55
2022-10-31T13:00:17.899Z,18.57
2022-10-31T13:02:51.163Z,18.58
2022-10-31T13:05:24.625Z,18.60
2022-10-31T13:07:59.841Z,18.62
2022-10-31T13:10:32.421Z,18.63
2022-10-31T13:13:07.834Z,18.63
2022-10-31T13:15:52.093Z,18.64
2022-10-31T13:18:28.158Z,18.64
2022-10-31T13:20:59.580Z,18.65
2022-10-31T13:26:26.185Z,18.63
2022-10-31T13:29:02.252Z,18.65
2022-10-31T13:31:30.171Z,18.66
2022-10-31T13:34:02.374Z,18.66
2022-10-31T13:36:37.020Z,18.65
2022-10-31T13:39:15.165Z,18.66
2022-10-31T13:41:49.041Z,18.67
2022-10-31T13:44:22.885Z,18.67
2022-10-31T13:46:51.196Z,18.64
2022-10-31T13:49:41.396Z,18.63
2022-10-31T13:52:17.713Z,18.67
2022-10-31T13:54:47.344Z,18.66
2022-10-31T13:57:20.563Z,18.68
2022-10-31T13:59:56.384Z,18.69
2022-10-31T14:02:29.006Z,18.69
2022-10-31T14:04:58.853Z,18.40
2022-10-31T14:07:28.742Z,18.64
2022-10-31T14:10:01.379Z,18.70
2022-10-31T14:12:31.757Z,18.39
2022-10-31T14:15:05.112Z,18.66
2022-10-31T14:17:40.668Z,18.69
2022-10-31T14:20:42.432Z,18.60
2022-10-31T14:23:37.374Z,18.64
2022-10-31T14:26:18.467Z,18.64
2022-10-31T14:28:47.028Z,18.63
2022-10-31T14:31:34.410Z,18.64
2022-10-31T14:34:03.833Z,18.62
2022-10-31T14:36:43.573Z,18.66
2022-10-31T14:39:19.985Z,18.64
2022-10-31T14:42:01.313Z,18.64
2022-10-31T14:44:47.500Z,18.63
2022-10-31T14:47:27.625Z,18.65
2022-10-31T14:50:16.327Z,18.62
2022-10-31T14:52:49.042Z,18.61
2022-10-31T14:55:18.674Z,18.62
2022-10-31T14:57:52.089Z,18.63
2022-10-31T15:00:22.942Z,18.62
2022-10-31T15:03:05.528Z,18.61
2022-10-31T15:05:35.050Z,18.57
2022-10-31T15:08:03.030Z,18.58
2022-10-31T15:10:35.867Z,18.60
2022-10-31T15:13:19.273Z,18.60
2022-10-31T15:15:51.992Z,18.56
2022-10-31T15:18:25.318Z,18.59
2022-10-31T15:20:54.679Z,18.56
2022-10-31T15:23:25.622Z,18.58
2022-10-31T15:26:01.089Z,18.57
2022-10-31T15:28:29.717Z,18.55
2022-10-31T15:31:01.066Z,18.55
2022-10-31T15:33:37.882Z,18.54
2022-10-31T15:36:07.664Z,18.52
2022-10-31T15:38:35.789Z,18.52
2022-10-31T15:41:06.676Z,18.53
2022-10-31T15:43:38.780Z,18.52
2022-10-31T15:46:11.066Z,18.52
2022-10-31T15:48:41.622Z,18.49
2022-10-31T15:51:09.763Z,18.50
2022-10-31T15:53:40.143Z,18.47
2022-10-31T15:56:10.006Z,18.47
2022-10-31T15:58:45.536Z,18.47
2022-10-31T16:01:25.364Z,18.46
2022-10-31T16:04:04.248Z,18.44
2022-10-31T16:06:33.773Z,18.42
2022-10-31T16:09:01.648Z,18.39
2022-10-31T16:11:37.104Z,18.42
2022-10-31T16:14:08.379Z,18.39
2022-10-31T16:16:43.452Z,18.38
2022-10-31T16:19:20.622Z,18.37
2022-10-31T16:21:51.139Z,18.34
2022-10-31T16:24:24.473Z,18.34
2022-10-31T16:26:55.031Z,18.33
2022-10-31T16:29:34.564Z,18.32
2022-10-31T16:32:02.719Z,18.26
2022-10-31T16:34:32.008Z,18.28
2022-10-31T16:36:59.845Z,18.25
2022-10-31T16:39:27.749Z,18.25
2022-10-31T16:41:58.120Z,18.25
2022-10-31T16:44:27.608Z,18.22
2022-10-31T16:47:11.298Z,18.23
2022-10-31T16:49:40.534Z,18.20
2022-10-31T16:52:08.420Z,18.18
2022-10-31T16:54:36.373Z,18.18
2022-10-31T16:57:06.886Z,18.18
2022-10-31T16:59:35.758Z,18.15
2022-10-31T17:02:12.204Z,18.16
2022-10-31T17:04:41.523Z,18.13
2022-10-31T17:07:09.442Z,18.10
2022-10-31T17:09:37.325Z,18.09
2022-10-31T17:12:07.724Z,18.08
2022-10-31T17:14:36.391Z,18.05
2022-10-31T17:17:04.235Z,18.04
2022-10-31T17:19:32.098Z,18.02
2022-10-31T17:22:03.119Z,18.02
2022-10-31T17:24:31.029Z,17.99
2022-10-31T17:26:58.883Z,17.97
2022-10-31T17:29:26.655Z,17.96
2022-10-31T17:31:54.721Z,17.94
2022-10-31T17:34:22.502Z,17.93
2022-10-31T17:36:52.297Z,17.94
2022-10-31T17:39:21.853Z,17.94
2022-10-31T17:41:52.393Z,17.92
2022-10-31T17:44:20.611Z,17.88
2022-10-31T17:46:48.420Z,17.87
2022-10-31T17:49:16.357Z,17.87
2022-10-31T17:51:44.078Z,17.86
2022-10-31T17:54:11.989Z,17.85
2022-10-31T17:56:41.113Z,17.86
2022-10-31T17:59:09.223Z,17.83
2022-10-31T18:01:37.705Z,17.82
2022-10-31T18:04:05.857Z,17.80
2022-10-31T18:06:33.592Z,17.79
2022-10-31T18:09:03.973Z,17.80
2022-10-31T18:11:32.641Z,17.78
2022-10-31T18:14:01.980Z,17.79
2022-10-31T18:16:29.863Z,17.73
2022-10-31T18:19:01.768Z,17.73
2022-10-31T18:21:30.156Z,17.72
2022-10-31T18:23:58.869Z,17.70
2022-10-31T18:26:28.014Z,17.70
2022-10-31T18:28:55.991Z,17.67
2022-10-31T18:31:25.494Z,17.68
2022-10-31T18:33:53.700Z,17.64
2022-10-31T18:36:21.971Z,17.62
2022-10-31T18:38:49.847Z,17.61
2022-10-31T18:41:18.164Z,17.59
2022-10-31T18:43:45.943Z,17.58
2022-10-31T18:46:15.956Z,17.57
2022-10-31T18:48:46.406Z,17.55
2022-10-31T18:51:17.994Z,17.52
2022-10-31T18:53:51.716Z,17.53
2022-10-31T18:56:20.209Z,17.47
2022-10-31T18:58:48.276Z,17.46
2022-10-31T19:01:17.519Z,17.44
2022-10-31T19:03:47.124Z,17.43
2022-10-31T19:06:15.062Z,17.40
2022-10-31T19:08:42.955Z,17.38
2022-10-31T19:11:12.817Z,17.37
2022-10-31T19:13:41.801Z,17.36
2022-10-31T19:16:11.428Z,17.35
2022-10-31T19:18:39.761Z,17.32
2022-10-31T19:21:11.337Z,17.34
2022-10-31T19:23:39.828Z,17.29
2022-10-31T19:26:07.937Z,17.28
2022-10-31T19:28:37.527Z,17.28
2022-10-31T19:31:06.546Z,17.27
2022-10-31T19:33:36.250Z,17.25
2022-10-31T19:36:09.535Z,17.26
2022-10-31T19:38:41.147Z,17.23
2022-10-31T19:41:11.148Z,17.20
2022-10-31T19:43:38.931Z,17.18
2022-10-31T19:46:17.354Z,17.18
2022-10-31T19:48:50.504Z,17.15
2022-10-31T19:51:20.801Z,17.16
2022-10-31T19:53:50.543Z,17.14
2022-10-31T19:56:20.373Z,17.14
2022-10-31T19:58:48.741Z,17.12
2022-10-31T20:01:18.290Z,17.12
2022-10-31T20:03:46.857Z,17.11
2022-10-31T20:06:17.439Z,17.12
2022-10-31T20:08:45.259Z,17.08
2022-10-31T20:11:14.400Z,17.10
2022-10-31T20:13:42.217Z,17.06
2022-10-31T20:16:12.622Z,17.06
2022-10-31T20:18:41.023Z,17.05
2022-10-31T20:21:12.155Z,17.04
2022-10-31T20:23:40.815Z,17.03
2022-10-31T20:26:11.495Z,17.02
2022-10-31T20:28:43.215Z,17.01
2022-10-31T20:31:13.548Z,16.98
2022-10-31T20:33:42.282Z,16.98
2022-10-31T20:36:10.754Z,16.98
2022-10-31T20:38:39.222Z,16.98
2022-10-31T20:41:08.501Z,16.98
2022-10-31T20:43:36.786Z,16.96
2022-10-31T20:46:08.285Z,16.98
2022-10-31T20:48:36.129Z,16.94
2022-10-31T20:51:06.500Z,16.97
2022-10-31T20:53:35.257Z,16.94
2022-10-31T20:56:07.030Z,16.94
2022-10-31T20:58:36.168Z,16.91
2022-10-31T21:01:04.148Z,16.91
2022-10-31T21:03:36.547Z,16.91
2022-10-31T21:06:05.644Z,16.89
2022-10-31T21:08:34.290Z,16.89
2022-10-31T21:11:02.198Z,16.88
2022-10-31T21:13:31.861Z,16.87
2022-10-31T21:16:02.292Z,16.88
2022-10-31T21:18:30.602Z,16.86
2022-10-31T21:20:59.719Z,16.87
2022-10-31T21:23:27.669Z,16.86
2022-10-31T21:25:55.511Z,16.85
2022-10-31T21:28:23.402Z,16.85
2022-10-31T21:30:52.647Z,16.84
2022-10-31T21:33:20.539Z,16.83
2022-10-31T21:35:52.035Z,16.86
2022-10-31T21:38:21.269Z,16.86
2022-10-31T21:40:49.099Z,16.81
2022-10-31T21:43:16.915Z,16.82
2022-10-31T21:45:44.713Z,16.81
2022-10-31T21:48:12.542Z,16.80
2022-10-31T21:50:40.299Z,16.81
2022-10-31T21:53:22.042Z,16.82
2022-10-31T21:55:51.220Z,16.81
2022-10-31T21:58:18.997Z,16.80
2022-10-31T22:00:46.941Z,16.78
2022-10-31T22:03:14.745Z,16.79
2022-10-31T22:05:42.557Z,16.79
2022-10-31T22:08:10.352Z,16.78
2022-10-31T22:10:38.450Z,16.79
2022-10-31T22:13:07.618Z,16.80
2022-10-31T22:15:35.511Z,16.78
2022-10-31T22:18:03.577Z,16.79
2022-10-31T22:20:32.198Z,16.80
2022-10-31T22:23:00.032Z,16.78
2022-10-31T22:25:27.795Z,16.78
2022-10-31T22:27:55.660Z,16.77
2022-10-31T22:30:24.893Z,16.80
2022-10-31T22:32:52.851Z,16.78
2022-10-31T22:35:20.703Z,16.77
2022-10-31T22:37:48.521Z,16.77
2022-10-31T22:40:16.575Z,16.77
2022-10-31T22:42:44.358Z,16.76
2022-10-31T22:45:12.339Z,16.78
2022-10-31T22:47:42.598Z,16.79
2022-10-31T22:50:10.791Z,16.76
2022-10-31T22:52:38.624Z,16.77
2022-10-31T22:55:07.711Z,16.77
2022-10-31T22:57:35.779Z,16.75
2022-10-31T23:00:04.879Z,16.76
2022-10-31T23:02:32.808Z,16.75
2022-10-31T23:05:02.279Z,16.76
2022-10-31T23:07:32.953Z,16.73
2022-10-31T23:10:01.166Z,16.73
2022-10-31T23:12:48.041Z,16.76
2022-10-31T23:15:16.020Z,16.72
2022-10-31T23:17:43.792Z,16.73
2022-10-31T23:20:13.054Z,16.75
2022-10-31T23:22:41.523Z,16.75
2022-10-31T23:25:10.179Z,16.76
2022-10-31T23:27:37.020Z,16.75
2022-10-31T23:30:05.803Z,16.77
2022-10-31T23:32:36.099Z,16.77
2022-10-31T23:35:06.205Z,16.78
2022-10-31T23:37:37.027Z,16.79
2022-10-31T23:40:06.386Z,16.80
2022-10-31T23:42:34.167Z,16.79
2022-10-31T23:45:01.958Z,16.79
2022-10-31T23:47:29.818Z,16.80
2022-10-31T23:49:57.719Z,16.81
2022-10-31T23:52:25.581Z,16.81
2022-10-31T23:54:54.787Z,16.83
2022-10-31T23:57:22.579Z,16.82
2022-10-31T23:59:50.456Z,16.81
